createdAt,value
2019-06-27T00:06:02.580Z,18.3
2019-06-27T00:19:08.500Z,18.1
2019-06-27T00:34:12.353Z,17.9
2019-06-27T00:46:06.787Z,17.8
2019-06-27T01:15:44.650Z,17.8
2019-06-27T01:44:33.175Z,17.6
2019-06-27T01:55:00.826Z,17.6
2019-06-27T02:05:21.821Z,17.4
2019-06-27T02:15:35.875Z,17.1
2019-06-27T02:25:54.255Z,16.9
2019-06-27T02:36:41.827Z,16.7
2019-06-27T02:47:30.944Z,16.6
2019-06-27T02:57:46.857Z,16.6
2019-06-27T03:08:23.733Z,16.5
2019-06-27T03:19:10.992Z,16.2
2019-06-27T03:31:34.478Z,16.1
2019-06-27T03:44:07.583Z,16.0
2019-06-27T03:55:15.630Z,16.0
2019-06-27T04:05:41.963Z,16.0
2019-06-27T04:18:04.417Z,15.9
2019-06-27T04:31:33.331Z,15.9
2019-06-27T04:44:34.769Z,15.9
2019-06-27T04:58:16.066Z,16.0
2019-06-27T05:08:31.490Z,16.0
2019-06-27T05:19:19.004Z,16.1
2019-06-27T05:30:14.632Z,16.1
2019-06-27T05:41:03.374Z,16.0
2019-06-27T05:51:56.856Z,15.9
2019-06-27T06:02:21.771Z,15.9
2019-06-27T06:12:38.863Z,15.9
2019-06-27T06:22:56.560Z,15.9
2019-06-27T06:33:17.017Z,16.0
2019-06-27T06:43:30.771Z,16.2
2019-06-27T06:53:46.746Z,16.5
2019-06-27T07:04:01.739Z,16.7
2019-06-27T07:14:48.291Z,17.0
2019-06-27T07:25:03.816Z,17.0
2019-06-27T07:35:50.682Z,18.6
2019-06-27T07:46:05.268Z,18.6
2019-06-27T07:57:05.073Z,22.7
2019-06-27T08:07:56.219Z,24.3
2019-06-27T08:18:23.376Z,24.3
2019-06-27T08:28:47.089Z,25.6
2019-06-27T08:39:44.007Z,28.3
2019-06-27T08:50:37.975Z,29.5
2019-06-27T09:01:03.706Z,29.6
2019-06-27T09:11:58.503Z,31.7
2019-06-27T09:22:23.166Z,31.7
2019-06-27T09:33:09.785Z,33.5
2019-06-27T09:58:55.474Z,34.1
2019-06-27T10:24:41.109Z,36.1
2019-06-27T10:36:18.363Z,36.3
2019-06-27T10:46:32.822Z,36.3
2019-06-27T10:56:50.058Z,36.5
2019-06-27T11:11:53.296Z,37.2
2019-06-27T11:22:06.992Z,37.2
2019-06-27T11:33:40.639Z,37.2
2019-06-27T11:45:03.814Z,37.0
2019-06-27T11:55:51.753Z,36.7
2019-06-27T12:06:37.239Z,36.3
2019-06-27T12:17:22.640Z,35.9
2019-06-27T12:28:12.698Z,35.8
2019-06-27T12:38:27.289Z,35.8
2019-06-27T12:48:41.321Z,35.7
2019-06-27T12:59:07.958Z,35.7
2019-06-27T13:09:21.863Z,35.7
2019-06-27T13:19:39.902Z,35.7
2019-06-27T13:29:51.738Z,35.8
2019-06-27T13:40:37.167Z,35.9
2019-06-27T13:50:51.350Z,35.9
2019-06-27T14:01:49.458Z,35.9
2019-06-27T14:12:03.719Z,35.9
2019-06-27T14:22:29.194Z,35.9
2019-06-27T14:33:53.973Z,35.4
2019-06-27T14:46:01.042Z,35.4
2019-06-27T14:58:10.848Z,33.9
2019-06-27T15:09:10.279Z,31.6
2019-06-27T15:19:23.980Z,31.5
2019-06-27T15:30:12.005Z,28.9
2019-06-27T15:42:53.469Z,29.1
2019-06-27T15:54:15.668Z,28.7
2019-06-27T16:13:02.572Z,28.0
2019-06-27T16:25:02.474Z,27.5
2019-06-27T16:39:22.524Z,26.8
2019-06-27T16:53:34.154Z,26.3
2019-06-27T17:34:20.755Z,25.6
2019-06-27T17:44:32.669Z,25.6
2019-06-27T17:54:46.566Z,25.2
2019-06-27T18:05:07.956Z,24.7
2019-06-27T18:18:23.989Z,24.3
2019-06-27T18:39:04.658Z,24.2
2019-06-27T18:51:38.911Z,23.8
2019-06-27T19:05:23.605Z,23.3
2019-06-27T19:26:43.745Z,22.5
2019-06-27T19:42:01.114Z,21.8
2019-06-27T19:52:46.232Z,21.1
2019-06-27T20:03:36.129Z,20.5
2019-06-27T20:15:24.173Z,20.0
2019-06-27T20:25:41.524Z,20.0
2019-06-27T20:39:09.211Z,19.0
2019-06-27T20:49:26.022Z,19.0
2019-06-27T21:00:17.230Z,18.2
2019-06-27T21:10:42.221Z,18.1
2019-06-27T21:21:30.252Z,17.6
2019-06-27T21:31:48.618Z,17.5
2019-06-27T21:42:04.714Z,17.3
2019-06-27T21:52:37.460Z,17.0
2019-06-27T22:03:29.028Z,16.5
2019-06-27T22:15:09.411Z,16.4
2019-06-27T22:25:39.637Z,16.4
2019-06-27T22:36:49.476Z,16.2
2019-06-27T22:47:34.827Z,16.2
2019-06-27T22:58:20.367Z,16.1
2019-06-27T23:10:17.134Z,16.0
2019-06-27T23:21:06.510Z,16.0
2019-06-27T23:31:44.919Z,16.0
2019-06-27T23:42:00.520Z,16.0
2019-06-27T23:52:13.853Z,15.9
